createdAt,value
2023-02-12T00:01:26.123Z,15.82
2023-02-12T00:03:53.048Z,15.43
2023-02-12T00:06:19.740Z,16.17
2023-02-12T00:08:49.626Z,16.23
2023-02-12T00:11:18.281Z,15.45
2023-02-12T00:13:45.025Z,15.27
2023-02-12T00:16:15.280Z,14.88
2023-02-12T00:18:41.933Z,15.88
2023-02-12T00:21:11.357Z,16.00
2023-02-12T00:23:39.011Z,16.80
2023-02-12T00:26:07.572Z,15.88
2023-02-12T00:28:34.375Z,16.00
2023-02-12T00:31:13.473Z,15.88
2023-02-12T00:33:40.619Z,16.38
2023-02-12T00:36:08.107Z,16.42
2023-02-12T00:38:34.952Z,16.35
2023-02-12T00:41:02.473Z,16.08
2023-02-12T00:43:29.184Z,16.50
2023-02-12T00:45:55.999Z,16.30
2023-02-12T00:48:22.669Z,16.10
2023-02-12T00:50:51.823Z,16.85
2023-02-12T00:53:18.334Z,17.25
2023-02-12T00:55:44.809Z,17.17
2023-02-12T00:58:11.781Z,16.88
2023-02-12T01:00:38.299Z,16.70
2023-02-12T01:03:05.576Z,17.23
2023-02-12T01:05:32.468Z,16.98
2023-02-12T01:07:59.094Z,17.38
2023-02-12T01:10:26.261Z,17.35
2023-02-12T01:12:52.833Z,17.27
2023-02-12T01:15:20.016Z,17.17
2023-02-12T01:17:46.818Z,17.08
2023-02-12T01:20:17.222Z,17.95
2023-02-12T01:22:44.258Z,16.60
2023-02-12T01:25:11.948Z,17.63
2023-02-12T01:27:38.668Z,18.75
2023-02-12T01:30:06.569Z,17.42
2023-02-12T01:32:34.682Z,18.08
2023-02-12T01:35:01.826Z,19.40
2023-02-12T01:37:28.209Z,16.92
2023-02-12T01:39:54.743Z,18.23
2023-02-12T01:42:21.306Z,17.75
2023-02-12T01:45:12.719Z,18.20
2023-02-12T01:47:40.505Z,16.80
2023-02-12T01:50:08.299Z,16.60
2023-02-12T01:52:36.600Z,18.00
2023-02-12T01:55:07.816Z,15.07
2023-02-12T01:57:36.900Z,15.48
2023-02-12T02:00:07.034Z,15.32
2023-02-12T02:02:40.541Z,14.95
2023-02-12T02:05:07.598Z,15.55
2023-02-12T02:07:34.117Z,16.25
2023-02-12T02:10:01.598Z,15.68
2023-02-12T02:12:47.050Z,15.70
2023-02-12T02:15:13.615Z,15.63
2023-02-12T02:17:47.300Z,15.95
2023-02-12T02:20:50.985Z,16.73
2023-02-12T02:23:23.202Z,16.42
2023-02-12T02:26:31.339Z,15.60
2023-02-12T02:29:21.195Z,16.42
2023-02-12T02:31:59.197Z,16.77
2023-02-12T02:34:52.049Z,16.15
2023-02-12T02:37:25.502Z,16.33
2023-02-12T02:40:04.365Z,16.55
2023-02-12T02:42:37.515Z,17.48
2023-02-12T02:45:16.277Z,16.58
2023-02-12T02:47:52.985Z,16.83
2023-02-12T02:50:21.334Z,17.90
2023-02-12T02:52:57.628Z,17.75
2023-02-12T02:55:27.389Z,17.73
2023-02-12T02:58:09.315Z,18.08
2023-02-12T03:00:39.866Z,17.67
2023-02-12T03:03:29.591Z,17.25
2023-02-12T03:06:00.353Z,17.73
2023-02-12T03:08:29.963Z,16.63
2023-02-12T03:11:01.595Z,16.90
2023-02-12T03:13:33.062Z,17.75
2023-02-12T03:16:04.665Z,17.45
2023-02-12T03:18:42.444Z,17.77
2023-02-12T03:21:14.755Z,16.77
2023-02-12T03:23:44.646Z,16.55
2023-02-12T03:26:14.697Z,17.77
2023-02-12T03:28:41.172Z,17.20
2023-02-12T03:31:36.352Z,17.45
2023-02-12T03:34:34.705Z,17.20
2023-02-12T03:37:05.325Z,17.73
2023-02-12T03:39:56.283Z,17.05
2023-02-12T03:42:35.668Z,16.90
2023-02-12T03:45:09.944Z,18.08
2023-02-12T03:47:45.282Z,16.55
2023-02-12T03:50:30.104Z,17.23
2023-02-12T03:52:56.642Z,16.95
2023-02-12T03:55:23.311Z,18.13
2023-02-12T03:57:53.223Z,17.90
2023-02-12T04:00:24.357Z,20.17
2023-02-12T04:02:51.973Z,17.77
2023-02-12T04:05:24.584Z,19.17
2023-02-12T04:07:52.042Z,20.67
2023-02-12T04:10:20.564Z,19.80
2023-02-12T04:12:53.336Z,19.15
2023-02-12T04:15:28.795Z,18.88
2023-02-12T04:18:32.102Z,19.42
2023-02-12T04:21:07.689Z,19.95
2023-02-12T04:23:42.617Z,19.38
2023-02-12T04:26:30.882Z,19.20
2023-02-12T04:29:13.139Z,18.40
2023-02-12T04:31:45.642Z,20.27
2023-02-12T04:34:30.800Z,20.08
2023-02-12T04:37:03.060Z,21.08
2023-02-12T04:39:31.711Z,21.70
2023-02-12T04:42:02.183Z,21.33
2023-02-12T04:44:32.236Z,22.60
2023-02-12T04:46:58.760Z,22.88
2023-02-12T04:49:26.021Z,23.02
2023-02-12T04:51:52.804Z,24.35
2023-02-12T04:54:20.552Z,23.20
2023-02-12T04:56:47.551Z,21.85
2023-02-12T04:59:14.547Z,23.75
2023-02-12T05:01:42.398Z,23.25
2023-02-12T05:04:10.797Z,21.65
2023-02-12T05:06:38.720Z,22.57
2023-02-12T05:09:06.561Z,21.63
2023-02-12T05:11:33.301Z,21.15
2023-02-12T05:13:59.721Z,22.92
2023-02-12T05:16:26.250Z,21.88
2023-02-12T05:18:52.741Z,23.23
2023-02-12T05:21:19.167Z,23.02
2023-02-12T05:23:45.611Z,22.65
2023-02-12T05:26:17.727Z,23.85
2023-02-12T05:28:44.523Z,25.23
2023-02-12T05:31:14.426Z,25.42
2023-02-12T05:33:45.455Z,25.35
2023-02-12T05:36:14.587Z,25.98
2023-02-12T05:38:41.092Z,26.90
2023-02-12T05:41:27.870Z,24.95
2023-02-12T05:43:54.367Z,27.13
2023-02-12T05:46:21.572Z,27.27
2023-02-12T05:48:48.185Z,25.80
2023-02-12T05:51:23.225Z,27.30
2023-02-12T05:53:51.504Z,27.85
2023-02-12T05:56:20.510Z,27.58
2023-02-12T05:58:48.926Z,27.38
2023-02-12T06:01:18.187Z,27.83
2023-02-12T06:06:11.996Z,27.52
2023-02-12T06:08:39.134Z,27.98
2023-02-12T06:11:08.882Z,29.08
2023-02-12T06:13:35.321Z,28.63
2023-02-12T06:16:02.091Z,29.10
2023-02-12T06:18:28.707Z,27.00
2023-02-12T06:20:56.288Z,28.45
2023-02-12T06:23:23.896Z,28.10
2023-02-12T06:25:51.565Z,27.42
2023-02-12T06:28:18.024Z,26.73
2023-02-12T06:30:44.518Z,28.30
2023-02-12T06:33:11.003Z,27.90
2023-02-12T06:35:37.846Z,27.08
2023-02-12T06:38:04.886Z,27.88
2023-02-12T06:40:31.614Z,28.05
2023-02-12T06:42:58.044Z,28.13
2023-02-12T06:45:24.786Z,29.13
2023-02-12T06:47:51.958Z,29.08
2023-02-12T06:50:18.744Z,29.17
2023-02-12T06:52:45.268Z,30.30
2023-02-12T06:55:11.797Z,30.15
2023-02-12T06:57:38.261Z,30.13
2023-02-12T07:00:05.561Z,29.60
2023-02-12T07:02:32.026Z,29.70
2023-02-12T07:04:58.504Z,28.90
2023-02-12T07:07:24.958Z,31.63
2023-02-12T07:09:51.400Z,31.70
2023-02-12T07:12:18.050Z,31.70
2023-02-12T07:14:44.487Z,32.83
2023-02-12T07:17:11.018Z,34.20
2023-02-12T07:19:37.537Z,34.70
2023-02-12T07:22:04.179Z,32.58
2023-02-12T07:24:30.603Z,33.25
2023-02-12T07:26:57.048Z,33.47
2023-02-12T07:29:23.470Z,33.28
2023-02-12T07:31:49.930Z,32.80
2023-02-12T07:34:16.446Z,33.67
2023-02-12T07:36:42.982Z,35.42
2023-02-12T07:39:11.533Z,35.33
2023-02-12T07:41:38.161Z,36.17
2023-02-12T07:44:07.542Z,35.95
2023-02-12T07:46:48.135Z,35.80
2023-02-12T07:49:20.606Z,36.72
2023-02-12T07:51:48.135Z,35.88
2023-02-12T07:54:15.185Z,35.25
2023-02-12T07:56:42.998Z,35.63
2023-02-12T07:59:14.732Z,35.13
2023-02-12T08:01:50.050Z,33.92
2023-02-12T08:04:18.818Z,34.30
2023-02-12T08:06:48.585Z,33.67
2023-02-12T08:09:17.732Z,33.70
2023-02-12T08:11:44.221Z,31.80
2023-02-12T08:14:15.969Z,33.00
2023-02-12T08:16:43.466Z,34.97
2023-02-12T08:19:19.517Z,35.53
2023-02-12T08:21:50.204Z,35.88
2023-02-12T08:24:16.663Z,34.30
2023-02-12T08:26:43.151Z,36.55
2023-02-12T08:29:19.559Z,35.53
2023-02-12T08:31:47.946Z,37.63
2023-02-12T08:34:18.671Z,35.80
2023-02-12T08:36:45.564Z,36.65
2023-02-12T08:39:12.110Z,39.63
2023-02-12T08:41:39.315Z,37.05
2023-02-12T08:44:05.791Z,38.97
2023-02-12T08:46:34.345Z,39.05
2023-02-12T08:49:03.362Z,34.40
2023-02-12T08:51:32.315Z,35.17
2023-02-12T08:54:03.921Z,36.42
2023-02-12T08:56:32.038Z,36.13
2023-02-12T08:58:59.797Z,37.50
2023-02-12T09:01:28.161Z,35.90
2023-02-12T09:03:54.727Z,34.57
2023-02-12T09:06:22.523Z,36.88
2023-02-12T09:08:50.190Z,34.45
2023-02-12T09:11:30.438Z,35.53
2023-02-12T09:14:03.269Z,34.45
2023-02-12T09:16:31.318Z,35.63
2023-02-12T09:18:58.098Z,34.97
2023-02-12T09:21:24.576Z,36.35
2023-02-12T09:23:51.498Z,35.72
2023-02-12T09:26:23.083Z,35.92
2023-02-12T09:28:50.537Z,35.85
2023-02-12T09:31:22.963Z,34.85
2023-02-12T09:33:53.372Z,33.95
2023-02-12T09:36:21.548Z,33.92
2023-02-12T09:38:48.967Z,33.25
2023-02-12T09:41:27.512Z,34.22
2023-02-12T09:44:12.246Z,35.35
2023-02-12T09:47:01.511Z,33.55
2023-02-12T09:51:55.686Z,32.75
2023-02-12T09:54:25.205Z,32.45
2023-02-12T09:56:55.290Z,31.77
2023-02-12T09:59:43.661Z,32.50
2023-02-12T10:02:15.499Z,31.40
2023-02-12T10:04:55.237Z,32.10
2023-02-12T10:07:30.513Z,31.83
2023-02-12T10:10:21.228Z,31.42
2023-02-12T10:12:53.370Z,34.03
2023-02-12T10:15:30.956Z,32.80
2023-02-12T10:18:16.785Z,31.02
2023-02-12T10:20:55.173Z,32.10
2023-02-12T10:23:31.859Z,32.73
2023-02-12T10:26:00.326Z,30.98
2023-02-12T10:28:33.350Z,31.75
2023-02-12T10:31:02.975Z,29.95
2023-02-12T10:33:39.844Z,30.73
2023-02-12T10:36:44.015Z,33.88
2023-02-12T10:39:10.348Z,30.75
2023-02-12T10:41:41.283Z,33.15
2023-02-12T10:44:10.405Z,33.78
2023-02-12T10:46:36.933Z,34.00
2023-02-12T10:49:04.218Z,31.60
2023-02-12T10:51:40.946Z,32.97
2023-02-12T10:54:34.948Z,32.85
2023-02-12T10:57:33.780Z,33.42
2023-02-12T11:00:31.400Z,31.23
2023-02-12T11:03:13.037Z,32.85
2023-02-12T11:05:42.135Z,31.40
2023-02-12T11:08:28.486Z,30.95
2023-02-12T11:10:54.989Z,30.02
2023-02-12T11:13:28.023Z,30.75
2023-02-12T11:15:55.037Z,30.90
2023-02-12T11:18:25.930Z,29.95
2023-02-12T11:20:58.936Z,30.80
2023-02-12T11:23:31.697Z,31.88
2023-02-12T11:26:23.885Z,32.15
2023-02-12T11:28:55.063Z,31.20
2023-02-12T11:31:31.743Z,30.70
2023-02-12T11:34:04.396Z,29.92
2023-02-12T11:36:33.109Z,31.10
2023-02-12T11:39:00.680Z,30.60
2023-02-12T11:41:34.568Z,29.02
2023-02-12T11:44:02.472Z,29.73
2023-02-12T11:46:29.227Z,28.05
2023-02-12T11:48:57.244Z,25.30
2023-02-12T11:51:29.381Z,25.92
2023-02-12T11:53:58.917Z,24.25
2023-02-12T11:56:25.550Z,26.23
2023-02-12T11:58:52.794Z,23.75
2023-02-12T12:01:34.251Z,23.15
2023-02-12T12:04:05.438Z,22.55
2023-02-12T12:06:36.478Z,22.73
2023-02-12T12:09:08.972Z,19.55
2023-02-12T12:11:47.866Z,20.17
2023-02-12T12:14:20.531Z,19.40
2023-02-12T12:17:21.730Z,21.52
2023-02-12T12:20:10.330Z,20.35
2023-02-12T12:22:46.998Z,16.48
2023-02-12T12:25:27.307Z,16.77
2023-02-12T12:28:08.200Z,15.25
2023-02-12T12:31:00.784Z,17.27
2023-02-12T12:33:35.382Z,19.15
2023-02-12T12:36:13.928Z,19.33
2023-02-12T12:38:55.956Z,19.33
2023-02-12T12:41:48.347Z,18.85
2023-02-12T12:44:38.473Z,19.45
2023-02-12T12:47:33.469Z,19.08
2023-02-12T12:50:24.497Z,18.50
2023-02-12T12:53:18.818Z,17.95
2023-02-12T12:56:09.840Z,17.40
2023-02-12T12:59:10.832Z,18.55
2023-02-12T13:02:00.118Z,17.73
2023-02-12T13:04:55.602Z,17.65
2023-02-12T13:07:32.615Z,16.65
2023-02-12T13:10:11.196Z,16.65
2023-02-12T13:12:59.552Z,18.33
2023-02-12T13:15:35.567Z,17.83
2023-02-12T13:18:16.895Z,15.88
2023-02-12T13:21:05.220Z,17.20
2023-02-12T13:23:46.032Z,17.17
2023-02-12T13:26:18.337Z,17.83
2023-02-12T13:28:49.688Z,19.35
2023-02-12T13:31:32.952Z,19.17
2023-02-12T13:34:02.791Z,16.83
2023-02-12T13:36:29.219Z,17.17
2023-02-12T13:38:58.264Z,21.02
2023-02-12T13:41:25.367Z,19.20
2023-02-12T13:44:14.846Z,16.60
2023-02-12T13:46:52.469Z,19.30
2023-02-12T13:49:37.460Z,18.63
2023-02-12T13:52:09.044Z,18.00
2023-02-12T13:54:43.927Z,16.77
2023-02-12T13:57:16.224Z,17.52
2023-02-12T13:59:44.842Z,16.08
2023-02-12T14:02:38.636Z,15.63
2023-02-12T14:05:15.717Z,16.05
2023-02-12T14:07:45.624Z,14.43
2023-02-12T14:10:36.955Z,15.70
2023-02-12T14:13:20.403Z,15.23
2023-02-12T14:15:55.407Z,16.40
2023-02-12T14:18:28.215Z,15.68
2023-02-12T14:21:27.038Z,16.25
2023-02-12T14:23:53.992Z,16.80
2023-02-12T14:26:22.175Z,16.85
2023-02-12T14:29:03.564Z,16.77
2023-02-12T14:31:38.069Z,18.15
2023-02-12T14:34:04.445Z,18.92
2023-02-12T14:36:38.722Z,19.40
2023-02-12T14:39:25.389Z,18.80
2023-02-12T14:41:53.046Z,18.23
2023-02-12T14:44:29.369Z,18.92
2023-02-12T14:47:17.168Z,19.10
2023-02-12T14:49:49.171Z,20.63
2023-02-12T14:52:20.047Z,19.00
2023-02-12T14:54:49.753Z,19.42
2023-02-12T14:57:23.469Z,20.02
2023-02-12T14:59:50.544Z,20.48
2023-02-12T15:02:24.443Z,19.70
2023-02-12T15:04:53.224Z,20.67
2023-02-12T15:07:29.049Z,19.08
2023-02-12T15:10:00.522Z,20.05
2023-02-12T15:12:51.284Z,19.58
2023-02-12T15:15:35.181Z,20.35
2023-02-12T15:18:42.992Z,19.67
2023-02-12T15:21:26.484Z,19.88
2023-02-12T15:24:10.362Z,19.88
2023-02-12T15:26:42.320Z,18.77
2023-02-12T15:29:19.728Z,20.13
2023-02-12T15:31:51.084Z,20.85
2023-02-12T15:34:21.799Z,19.85
2023-02-12T15:36:48.305Z,21.58
2023-02-12T15:39:20.232Z,21.63
2023-02-12T15:41:46.898Z,22.98
2023-02-12T15:44:28.327Z,22.25
2023-02-12T15:47:01.228Z,22.55
2023-02-12T15:49:31.268Z,22.60
2023-02-12T15:51:59.046Z,22.13
2023-02-12T15:54:25.638Z,22.05
2023-02-12T15:56:53.675Z,23.13
2023-02-12T15:59:22.429Z,21.88
2023-02-12T16:02:03.517Z,22.75
2023-02-12T16:04:36.403Z,21.45
2023-02-12T16:07:03.180Z,22.08
2023-02-12T16:09:34.124Z,21.40
2023-02-12T16:12:03.729Z,19.63
2023-02-12T16:14:52.189Z,20.80
2023-02-12T16:17:27.838Z,21.08
2023-02-12T16:20:01.864Z,21.10
2023-02-12T16:22:49.164Z,19.58
2023-02-12T16:25:18.799Z,19.10
2023-02-12T16:27:59.355Z,19.02
2023-02-12T16:30:31.279Z,18.77
2023-02-12T16:32:58.178Z,19.42
2023-02-12T16:35:35.440Z,20.42
2023-02-12T16:38:23.926Z,19.85
2023-02-12T16:41:19.750Z,18.25
2023-02-12T16:43:48.453Z,19.55
2023-02-12T16:46:16.719Z,19.08
2023-02-12T16:48:49.285Z,18.95
2023-02-12T16:51:22.916Z,18.80
2023-02-12T16:53:50.156Z,18.75
2023-02-12T16:56:20.908Z,19.83
2023-02-12T16:59:07.905Z,20.60
2023-02-12T17:01:36.453Z,19.77
2023-02-12T17:04:08.540Z,20.65
2023-02-12T17:06:34.955Z,21.55
2023-02-12T17:09:01.427Z,22.98
2023-02-12T17:11:28.865Z,22.63
2023-02-12T17:13:55.550Z,22.95
2023-02-12T17:16:30.938Z,23.20
2023-02-12T17:18:58.519Z,22.05
2023-02-12T17:21:28.776Z,22.98
2023-02-12T17:23:55.639Z,21.65
2023-02-12T17:26:25.321Z,21.52
2023-02-12T17:28:51.767Z,21.15
2023-02-12T17:31:19.428Z,21.65
2023-02-12T17:33:46.059Z,24.70
2023-02-12T17:36:12.687Z,33.10
2023-02-12T17:38:39.179Z,32.35
2023-02-12T17:41:10.846Z,30.85
2023-02-12T17:43:37.339Z,32.35
2023-02-12T17:46:09.665Z,24.45
2023-02-12T17:48:36.089Z,29.23
2023-02-12T17:51:02.577Z,28.08
2023-02-12T17:53:29.016Z,23.08
2023-02-12T17:55:55.485Z,26.13
2023-02-12T17:58:21.900Z,27.83
2023-02-12T18:00:48.332Z,23.60
2023-02-12T18:03:14.865Z,23.80
2023-02-12T18:05:42.589Z,23.25
2023-02-12T18:08:09.626Z,21.17
2023-02-12T18:10:43.585Z,21.02
2023-02-12T18:13:14.010Z,20.88
2023-02-12T18:15:40.635Z,20.38
2023-02-12T18:18:07.385Z,20.17
2023-02-12T18:20:33.910Z,20.05
2023-02-12T18:23:00.523Z,20.65
2023-02-12T18:25:26.967Z,22.17
2023-02-12T18:27:53.371Z,21.80
2023-02-12T18:30:19.843Z,22.60
2023-02-12T18:32:46.238Z,19.65
2023-02-12T18:35:12.730Z,19.52
2023-02-12T18:37:43.224Z,21.83
2023-02-12T18:40:10.433Z,21.77
2023-02-12T18:42:36.861Z,20.00
2023-02-12T18:45:03.644Z,22.02
2023-02-12T18:47:30.154Z,19.55
2023-02-12T18:49:57.929Z,24.88
2023-02-12T18:52:24.840Z,27.65
2023-02-12T18:54:53.040Z,26.80
2023-02-12T18:57:19.993Z,42.85
2023-02-12T18:59:46.447Z,39.80
2023-02-12T19:02:13.512Z,42.58
2023-02-12T19:04:40.480Z,33.75
2023-02-12T19:07:06.942Z,22.77
2023-02-12T19:09:33.404Z,15.85
2023-02-12T19:12:00.148Z,16.50
2023-02-12T19:14:27.666Z,15.60
2023-02-12T19:16:54.130Z,16.45
2023-02-12T19:19:23.927Z,14.70
2023-02-12T19:21:50.803Z,14.32
2023-02-12T19:24:17.705Z,14.20
2023-02-12T19:26:44.357Z,13.48
2023-02-12T19:29:12.070Z,13.70
2023-02-12T19:31:41.227Z,13.38
2023-02-12T19:36:36.429Z,12.95
2023-02-12T19:39:04.491Z,12.98
2023-02-12T19:41:32.895Z,12.35
2023-02-12T19:44:01.292Z,13.43
2023-02-12T19:46:30.113Z,14.90
2023-02-12T19:48:58.600Z,13.05
2023-02-12T19:51:25.823Z,13.03
2023-02-12T19:53:52.635Z,13.60
2023-02-12T19:56:19.468Z,16.85
2023-02-12T19:58:45.940Z,14.57
2023-02-12T20:01:18.005Z,15.32
2023-02-12T20:03:45.556Z,14.75
2023-02-12T20:06:21.343Z,14.05
2023-02-12T20:08:47.862Z,13.45
2023-02-12T20:11:18.107Z,13.82
2023-02-12T20:13:44.949Z,14.57
2023-02-12T20:16:19.641Z,15.40
2023-02-12T20:18:47.911Z,14.85
2023-02-12T20:21:17.646Z,12.80
2023-02-12T20:23:44.066Z,17.08
2023-02-12T20:26:14.014Z,18.60
2023-02-12T20:28:42.657Z,18.75
2023-02-12T20:31:14.869Z,15.70
2023-02-12T20:33:41.861Z,13.40
2023-02-12T20:36:09.441Z,13.88
2023-02-12T20:38:38.298Z,14.32
2023-02-12T20:41:06.004Z,13.50
2023-02-12T20:43:33.290Z,13.40
2023-02-12T20:46:18.576Z,12.27
2023-02-12T20:48:45.166Z,11.55
2023-02-12T20:51:14.192Z,13.20
2023-02-12T20:53:41.617Z,10.85
2023-02-12T20:56:11.762Z,11.85
2023-02-12T20:58:40.297Z,11.93
2023-02-12T21:01:08.770Z,11.45
2023-02-12T21:03:35.614Z,11.23
2023-02-12T21:06:02.818Z,10.60
2023-02-12T21:08:29.738Z,11.30
2023-02-12T21:11:00.279Z,11.02
2023-02-12T21:13:27.052Z,11.15
2023-02-12T21:16:03.433Z,10.23
2023-02-12T21:18:30.153Z,10.98
2023-02-12T21:21:01.544Z,10.93
2023-02-12T21:23:27.976Z,11.00
2023-02-12T21:26:23.721Z,11.20
2023-02-12T21:28:51.492Z,10.88
2023-02-12T21:31:19.835Z,11.45
2023-02-12T21:33:47.661Z,10.87
2023-02-12T21:36:20.477Z,10.57
2023-02-12T21:38:48.731Z,11.60
2023-02-12T21:41:27.456Z,10.90
2023-02-12T21:44:00.557Z,10.52
2023-02-12T21:46:27.690Z,9.70
2023-02-12T21:48:54.588Z,10.20
2023-02-12T21:51:34.348Z,10.43
2023-02-12T21:54:04.373Z,11.15
2023-02-12T21:56:31.048Z,10.40
2023-02-12T21:59:00.626Z,9.73
2023-02-12T22:01:30.826Z,11.40
2023-02-12T22:03:57.577Z,11.05
2023-02-12T22:06:24.841Z,10.68
2023-02-12T22:08:55.835Z,10.55
2023-02-12T22:11:23.091Z,11.48
2023-02-12T22:13:49.896Z,10.20
2023-02-12T22:16:24.837Z,11.07
2023-02-12T22:18:52.915Z,11.02
2023-02-12T22:21:19.406Z,11.63
2023-02-12T22:23:46.022Z,10.07
2023-02-12T22:26:15.383Z,9.98
2023-02-12T22:31:14.447Z,9.90
2023-02-12T22:33:40.896Z,10.55
2023-02-12T22:36:09.498Z,11.88
2023-02-12T22:38:37.011Z,11.30
2023-02-12T22:41:05.293Z,10.75
2023-02-12T22:43:33.481Z,10.63
2023-02-12T22:46:00.037Z,11.77
2023-02-12T22:48:28.262Z,10.98
2023-02-12T22:50:55.755Z,11.13
2023-02-12T22:53:23.502Z,11.88
2023-02-12T22:55:50.044Z,11.10
2023-02-12T22:58:17.024Z,11.27
2023-02-12T23:00:43.568Z,11.90
2023-02-12T23:03:10.154Z,11.07
2023-02-12T23:05:37.653Z,10.68
2023-02-12T23:08:05.354Z,11.45
2023-02-12T23:10:32.242Z,12.02
2023-02-12T23:12:59.024Z,11.52
2023-02-12T23:15:25.443Z,11.68
2023-02-12T23:17:51.871Z,13.13
2023-02-12T23:20:18.436Z,11.55
2023-02-12T23:22:44.881Z,10.93
2023-02-12T23:25:12.019Z,11.75
2023-02-12T23:27:39.018Z,11.07
2023-02-12T23:30:06.045Z,11.50
2023-02-12T23:32:32.481Z,11.27
2023-02-12T23:34:58.951Z,10.65
2023-02-12T23:37:25.372Z,12.07
2023-02-12T23:39:51.772Z,11.77
2023-02-12T23:42:19.032Z,11.82
2023-02-12T23:44:45.457Z,11.77
2023-02-12T23:47:12.047Z,11.48
2023-02-12T23:49:38.778Z,11.50
2023-02-12T23:52:05.283Z,11.90
2023-02-12T23:54:31.781Z,10.85
2023-02-12T23:56:58.326Z,11.38
2023-02-12T23:59:25.804Z,10.75
